sensor_id;sensor_type;location;lat;lon;timestamp;pressure;altitude;pressure_sealevel;temperature;humidity
21826;BME280;11075;47.944;11.776;2022-11-23T00:01:42;93484.91;;;9.78;25.97
21826;BME280;11075;47.944;11.776;2022-11-23T00:04:27;93427.91;;;5.66;31.39
21826;BME280;11075;47.944;11.776;2022-11-23T00:06:58;93478.22;;;11.55;24.17
21826;BME280;11075;47.944;11.776;2022-11-23T00:10:07;93475.63;;;11.22;24.68
21826;BME280;11075;47.944;11.776;2022-11-23T00:13:49;93497.06;;;11.48;24.06
21826;BME280;11075;47.944;11.776;2022-11-23T00:21:55;93487.38;;;10.73;24.68
21826;BME280;11075;47.944;11.776;2022-11-23T00:24:54;93493.47;;;11.78;23.78
21826;BME280;11075;47.944;11.776;2022-11-23T00:27:21;93456.91;;;8.91;27.33
21826;BME280;11075;47.944;11.776;2022-11-23T00:29:48;93467.88;;;7.74;27.67
21826;BME280;11075;47.944;11.776;2022-11-23T00:32:14;93458.06;;;8.71;27.50
21826;BME280;11075;47.944;11.776;2022-11-23T00:34:41;93490.22;;;11.61;23.77
21826;BME280;11075;47.944;11.776;2022-11-23T00:37:08;93483.31;;;10.00;25.80
21826;BME280;11075;47.944;11.776;2022-11-23T00:39:36;93475.34;;;10.33;25.61
21826;BME280;11075;47.944;11.776;2022-11-23T00:42:02;93505.56;;;11.13;24.20
21826;BME280;11075;47.944;11.776;2022-11-23T00:44:29;93479.97;;;9.57;26.61
21826;BME280;11075;47.944;11.776;2022-11-23T00:46:56;93497.56;;;11.20;24.30
21826;BME280;11075;47.944;11.776;2022-11-23T00:49:23;93495.19;;;10.25;25.78
21826;BME280;11075;47.944;11.776;2022-11-23T00:51:51;93494.63;;;9.40;26.37
21826;BME280;11075;47.944;11.776;2022-11-23T00:54:18;93492.28;;;9.58;26.22
21826;BME280;11075;47.944;11.776;2022-11-23T00:56:45;93487.25;;;9.57;26.46
21826;BME280;11075;47.944;11.776;2022-11-23T00:59:11;93463.56;;;8.59;27.73
21826;BME280;11075;47.944;11.776;2022-11-23T01:01:39;93470.84;;;9.88;26.48
21826;BME280;11075;47.944;11.776;2022-11-23T01:04:07;93484.56;;;10.62;25.23
21826;BME280;11075;47.944;11.776;2022-11-23T01:06:38;93486.25;;;10.74;25.27
21826;BME280;11075;47.944;11.776;2022-11-23T01:09:12;93507.06;;;11.92;23.89
21826;BME280;11075;47.944;11.776;2022-11-23T01:11:39;93508.09;;;11.73;24.32
21826;BME280;11075;47.944;11.776;2022-11-23T01:14:06;93499.66;;;11.00;25.09
21826;BME280;11075;47.944;11.776;2022-11-23T01:16:35;93502.09;;;9.50;26.44
21826;BME280;11075;47.944;11.776;2022-11-23T01:19:07;93481.59;;;8.97;27.12
21826;BME280;11075;47.944;11.776;2022-11-23T01:21:35;93453.25;;;8.61;28.23
21826;BME280;11075;47.944;11.776;2022-11-23T01:24:13;93467.03;;;8.78;27.83
21826;BME280;11075;47.944;11.776;2022-11-23T01:26:41;93475.22;;;9.28;26.80
21826;BME280;11075;47.944;11.776;2022-11-23T01:29:10;93465.06;;;8.56;27.93
21826;BME280;11075;47.944;11.776;2022-11-23T01:31:37;93467.25;;;8.89;27.35
21826;BME280;11075;47.944;11.776;2022-11-23T01:34:13;93480.59;;;10.86;25.34
21826;BME280;11075;47.944;11.776;2022-11-23T01:36:41;93489.94;;;11.29;24.59
21826;BME280;11075;47.944;11.776;2022-11-23T01:39:09;93483.81;;;10.09;25.77
21826;BME280;11075;47.944;11.776;2022-11-23T01:41:39;93505.66;;;12.08;23.50
21826;BME280;11075;47.944;11.776;2022-11-23T01:44:29;93530.28;;;12.55;23.10
21826;BME280;11075;47.944;11.776;2022-11-23T01:47:02;93522.00;;;12.30;23.21
21826;BME280;11075;47.944;11.776;2022-11-23T01:49:35;93523.13;;;12.94;22.67
21826;BME280;11075;47.944;11.776;2022-11-23T01:52:24;93529.72;;;11.80;23.47
21826;BME280;11075;47.944;11.776;2022-11-23T01:54:54;93549.97;;;13.49;21.87
21826;BME280;11075;47.944;11.776;2022-11-23T01:57:30;93535.78;;;12.18;23.42
21826;BME280;11075;47.944;11.776;2022-11-23T01:59:59;93519.22;;;11.31;24.41
21826;BME280;11075;47.944;11.776;2022-11-23T02:02:27;93529.38;;;12.33;23.41
21826;BME280;11075;47.944;11.776;2022-11-23T02:04:58;93514.03;;;9.99;25.53
21826;BME280;11075;47.944;11.776;2022-11-23T02:07:27;93517.19;;;11.21;24.51
21826;BME280;11075;47.944;11.776;2022-11-23T02:09:54;93523.50;;;11.35;24.10
21826;BME280;11075;47.944;11.776;2022-11-23T02:12:21;93533.25;;;12.35;23.08
21826;BME280;11075;47.944;11.776;2022-11-23T02:14:49;93497.69;;;8.58;27.40
21826;BME280;11075;47.944;11.776;2022-11-23T02:17:18;93518.81;;;10.95;24.37
21826;BME280;11075;47.944;11.776;2022-11-23T02:20:08;93522.59;;;11.61;23.85
21826;BME280;11075;47.944;11.776;2022-11-23T02:28:23;93509.66;;;11.37;24.31
21826;BME280;11075;47.944;11.776;2022-11-23T02:30:52;93514.56;;;10.08;25.46
21826;BME280;11075;47.944;11.776;2022-11-23T02:33:22;93492.84;;;9.94;25.65
21826;BME280;11075;47.944;11.776;2022-11-23T02:35:53;93515.13;;;11.07;24.37
21826;BME280;11075;47.944;11.776;2022-11-23T02:38:24;93519.56;;;11.26;24.28
21826;BME280;11075;47.944;11.776;2022-11-23T02:40:54;93520.75;;;10.35;24.95
21826;BME280;11075;47.944;11.776;2022-11-23T02:43:22;93508.34;;;9.77;25.60
21826;BME280;11075;47.944;11.776;2022-11-23T02:45:57;93516.69;;;11.08;24.19
21826;BME280;11075;47.944;11.776;2022-11-23T02:48:25;93515.97;;;11.15;23.91
21826;BME280;11075;47.944;11.776;2022-11-23T02:50:53;93511.94;;;10.68;24.61
21826;BME280;11075;47.944;11.776;2022-11-23T02:53:20;93536.22;;;10.71;23.72
21826;BME280;11075;47.944;11.776;2022-11-23T02:55:47;93534.50;;;11.97;23.10
21826;BME280;11075;47.944;11.776;2022-11-23T02:58:16;93529.34;;;11.82;23.66
21826;BME280;11075;47.944;11.776;2022-11-23T03:00:43;93535.81;;;11.70;23.11
21826;BME280;11075;47.944;11.776;2022-11-23T03:03:10;93528.66;;;11.92;23.55
21826;BME280;11075;47.944;11.776;2022-11-23T03:05:38;93531.72;;;10.49;24.59
21826;BME280;11075;47.944;11.776;2022-11-23T03:08:05;93537.97;;;11.57;23.59
21826;BME280;11075;47.944;11.776;2022-11-23T03:10:33;93527.97;;;11.58;23.68
21826;BME280;11075;47.944;11.776;2022-11-23T03:13:00;93545.91;;;11.39;23.63
21826;BME280;11075;47.944;11.776;2022-11-23T03:15:30;93553.56;;;12.22;22.70
21826;BME280;11075;47.944;11.776;2022-11-23T03:17:58;93533.75;;;10.29;25.10
21826;BME280;11075;47.944;11.776;2022-11-23T03:20:26;93522.94;;;10.56;24.66
21826;BME280;11075;47.944;11.776;2022-11-23T03:22:52;93546.69;;;11.81;23.28
21826;BME280;11075;47.944;11.776;2022-11-23T03:25:22;93557.44;;;11.03;23.84
21826;BME280;11075;47.944;11.776;2022-11-23T03:27:52;93525.13;;;8.86;26.46
21826;BME280;11075;47.944;11.776;2022-11-23T03:30:19;93528.63;;;11.10;24.71
21826;BME280;11075;47.944;11.776;2022-11-23T03:32:47;93537.75;;;9.25;25.94
21826;BME280;11075;47.944;11.776;2022-11-23T03:35:15;93532.41;;;10.72;24.61
21826;BME280;11075;47.944;11.776;2022-11-23T03:38:05;93521.84;;;9.58;25.98
21826;BME280;11075;47.944;11.776;2022-11-23T03:40:33;93525.69;;;9.57;26.18
21826;BME280;11075;47.944;11.776;2022-11-23T03:43:26;93528.19;;;9.69;25.83
21826;BME280;11075;47.944;11.776;2022-11-23T03:45:52;93524.94;;;10.32;25.18
21826;BME280;11075;47.944;11.776;2022-11-23T03:48:19;93534.22;;;10.65;24.47
21826;BME280;11075;47.944;11.776;2022-11-23T03:50:47;93533.06;;;11.29;23.91
21826;BME280;11075;47.944;11.776;2022-11-23T03:53:14;93537.13;;;11.90;23.05
21826;BME280;11075;47.944;11.776;2022-11-23T03:55:44;93538.78;;;12.05;23.03
21826;BME280;11075;47.944;11.776;2022-11-23T03:58:12;93553.84;;;12.58;22.04
21826;BME280;11075;47.944;11.776;2022-11-23T04:00:40;93540.25;;;11.92;22.88
21826;BME280;11075;47.944;11.776;2022-11-23T04:03:10;93554.78;;;12.28;22.63
21826;BME280;11075;47.944;11.776;2022-11-23T04:05:55;93540.44;;;11.69;23.09
21826;BME280;11075;47.944;11.776;2022-11-23T04:08:41;93544.25;;;11.65;23.46
21826;BME280;11075;47.944;11.776;2022-11-23T04:11:14;93548.13;;;12.15;22.90
21826;BME280;11075;47.944;11.776;2022-11-23T04:13:45;93538.19;;;11.04;24.12
21826;BME280;11075;47.944;11.776;2022-11-23T04:16:12;93538.84;;;12.13;22.95
21826;BME280;11075;47.944;11.776;2022-11-23T04:18:38;93554.41;;;12.30;22.55
21826;BME280;11075;47.944;11.776;2022-11-23T04:21:07;93543.06;;;10.95;23.39
21826;BME280;11075;47.944;11.776;2022-11-23T04:23:34;93553.97;;;12.24;22.09
21826;BME280;11075;47.944;11.776;2022-11-23T04:26:04;93541.34;;;11.47;23.02
21826;BME280;11075;47.944;11.776;2022-11-23T04:28:31;93541.91;;;11.26;23.17
21826;BME280;11075;47.944;11.776;2022-11-23T04:30:58;93547.22;;;12.52;22.17
21826;BME280;11075;47.944;11.776;2022-11-23T04:33:32;93556.31;;;12.26;22.35
21826;BME280;11075;47.944;11.776;2022-11-23T04:35:59;93552.97;;;12.43;22.16
21826;BME280;11075;47.944;11.776;2022-11-23T04:38:26;93558.84;;;12.56;21.74
21826;BME280;11075;47.944;11.776;2022-11-23T04:40:53;93564.81;;;12.90;21.70
21826;BME280;11075;47.944;11.776;2022-11-23T04:43:20;93559.00;;;12.88;21.41
21826;BME280;11075;47.944;11.776;2022-11-23T04:45:47;93557.59;;;10.87;23.45
21826;BME280;11075;47.944;11.776;2022-11-23T04:48:22;93545.22;;;11.50;22.83
21826;BME280;11075;47.944;11.776;2022-11-23T04:50:48;93546.38;;;11.89;22.36
21826;BME280;11075;47.944;11.776;2022-11-23T04:53:27;93534.84;;;11.15;23.14
21826;BME280;11075;47.944;11.776;2022-11-23T04:55:55;93546.06;;;11.57;22.72
21826;BME280;11075;47.944;11.776;2022-11-23T04:58:23;93551.59;;;12.16;22.14
21826;BME280;11075;47.944;11.776;2022-11-23T05:00:57;93546.94;;;11.28;22.69
21826;BME280;11075;47.944;11.776;2022-11-23T05:03:24;93562.59;;;12.41;21.63
21826;BME280;11075;47.944;11.776;2022-11-23T05:05:51;93563.34;;;12.34;21.91
21826;BME280;11075;47.944;11.776;2022-11-23T05:08:18;93549.25;;;11.66;22.83
21826;BME280;11075;47.944;11.776;2022-11-23T05:10:55;93560.28;;;11.91;22.14
21826;BME280;11075;47.944;11.776;2022-11-23T05:13:23;93551.59;;;11.31;22.61
21826;BME280;11075;47.944;11.776;2022-11-23T05:15:51;93547.28;;;11.63;22.18
21826;BME280;11075;47.944;11.776;2022-11-23T05:18:24;93539.56;;;10.61;23.43
21826;BME280;11075;47.944;11.776;2022-11-23T05:20:52;93547.19;;;11.93;21.95
21826;BME280;11075;47.944;11.776;2022-11-23T05:23:19;93552.97;;;11.95;22.08
21826;BME280;11075;47.944;11.776;2022-11-23T05:25:48;93553.31;;;12.34;21.54
21826;BME280;11075;47.944;11.776;2022-11-23T05:28:19;93544.38;;;11.42;23.05
21826;BME280;11075;47.944;11.776;2022-11-23T05:31:08;93548.13;;;11.67;22.54
21826;BME280;11075;47.944;11.776;2022-11-23T05:33:36;93543.03;;;11.25;23.00
21826;BME280;11075;47.944;11.776;2022-11-23T05:36:04;93536.91;;;10.95;23.37
21826;BME280;11075;47.944;11.776;2022-11-23T05:38:35;93533.53;;;10.71;23.45
21826;BME280;11075;47.944;11.776;2022-11-23T05:41:08;93545.88;;;11.77;22.17
21826;BME280;11075;47.944;11.776;2022-11-23T05:43:38;93530.56;;;10.50;23.34
21826;BME280;11075;47.944;11.776;2022-11-23T05:46:08;93533.59;;;9.50;24.40
21826;BME280;11075;47.944;11.776;2022-11-23T05:48:36;93521.94;;;10.37;23.70
21826;BME280;11075;47.944;11.776;2022-11-23T05:51:09;93522.19;;;10.29;24.05
21826;BME280;11075;47.944;11.776;2022-11-23T05:53:41;93527.56;;;10.55;23.38
21826;BME280;11075;47.944;11.776;2022-11-23T05:56:28;93536.13;;;11.28;22.32
21826;BME280;11075;47.944;11.776;2022-11-23T05:59:13;93533.81;;;11.26;22.73
21826;BME280;11075;47.944;11.776;2022-11-23T06:01:43;93541.69;;;11.42;22.35
21826;BME280;11075;47.944;11.776;2022-11-23T06:04:14;93508.72;;;8.53;25.91
21826;BME280;11075;47.944;11.776;2022-11-23T06:06:44;93534.97;;;10.95;23.14
21826;BME280;11075;47.944;11.776;2022-11-23T06:09:11;93533.06;;;11.29;22.29
21826;BME280;11075;47.944;11.776;2022-11-23T06:11:42;93511.53;;;8.41;25.40
21826;BME280;11075;47.944;11.776;2022-11-23T06:14:13;93526.06;;;10.58;23.05
21826;BME280;11075;47.944;11.776;2022-11-23T06:16:43;93535.25;;;11.17;22.34
21826;BME280;11075;47.944;11.776;2022-11-23T06:19:30;93536.22;;;11.35;22.59
21826;BME280;11075;47.944;11.776;2022-11-23T06:21:57;93545.84;;;11.73;21.37
21826;BME280;11075;47.944;11.776;2022-11-23T06:24:28;93552.00;;;11.70;21.35
21826;BME280;11075;47.944;11.776;2022-11-23T06:27:27;93553.66;;;11.85;21.60
21826;BME280;11075;47.944;11.776;2022-11-23T06:29:54;93549.25;;;11.29;21.73
21826;BME280;11075;47.944;11.776;2022-11-23T06:32:24;93543.47;;;10.37;23.19
21826;BME280;11075;47.944;11.776;2022-11-23T06:34:52;93547.81;;;11.39;22.00
21826;BME280;11075;47.944;11.776;2022-11-23T06:37:25;93557.00;;;11.71;21.76
21826;BME280;11075;47.944;11.776;2022-11-23T06:39:52;93562.31;;;12.05;20.97
21826;BME280;11075;47.944;11.776;2022-11-23T06:42:19;93556.25;;;11.71;21.46
21826;BME280;11075;47.944;11.776;2022-11-23T06:45:25;93549.91;;;11.56;21.90
21826;BME280;11075;47.944;11.776;2022-11-23T06:47:56;93560.91;;;11.03;22.53
21826;BME280;11075;47.944;11.776;2022-11-23T06:50:25;93557.63;;;11.98;21.58
21826;BME280;11075;47.944;11.776;2022-11-23T06:52:54;93557.66;;;11.61;21.91
21826;BME280;11075;47.944;11.776;2022-11-23T06:55:32;93532.47;;;9.09;25.11
21826;BME280;11075;47.944;11.776;2022-11-23T06:58:00;93549.22;;;10.96;22.88
21826;BME280;11075;47.944;11.776;2022-11-23T07:00:27;93569.38;;;12.20;21.70
21826;BME280;11075;47.944;11.776;2022-11-23T07:02:55;93562.81;;;11.03;22.88
21826;BME280;11075;47.944;11.776;2022-11-23T07:05:23;93557.81;;;10.75;23.17
21826;BME280;11075;47.944;11.776;2022-11-23T07:07:51;93564.69;;;11.32;22.62
21826;BME280;11075;47.944;11.776;2022-11-23T07:10:24;93572.28;;;10.93;22.54
21826;BME280;11075;47.944;11.776;2022-11-23T07:13:05;93574.94;;;11.94;21.87
21826;BME280;11075;47.944;11.776;2022-11-23T07:15:35;93570.63;;;10.82;22.94
21826;BME280;11075;47.944;11.776;2022-11-23T07:18:02;93566.53;;;10.95;23.13
21826;BME280;11075;47.944;11.776;2022-11-23T07:20:30;93583.31;;;12.26;21.89
21826;BME280;11075;47.944;11.776;2022-11-23T07:23:04;93584.94;;;12.34;21.62
21826;BME280;11075;47.944;11.776;2022-11-23T07:25:33;93568.25;;;11.06;23.02
21826;BME280;11075;47.944;11.776;2022-11-23T07:28:02;93566.69;;;11.39;23.18
21826;BME280;11075;47.944;11.776;2022-11-23T07:30:31;93573.66;;;11.77;22.74
21826;BME280;11075;47.944;11.776;2022-11-23T07:33:07;93582.75;;;12.54;21.76
21826;BME280;11075;47.944;11.776;2022-11-23T07:35:36;93603.13;;;13.02;21.04
21826;BME280;11075;47.944;11.776;2022-11-23T07:38:04;93607.91;;;13.41;20.85
21826;BME280;11075;47.944;11.776;2022-11-23T07:40:37;93614.31;;;12.97;21.08
21826;BME280;11075;47.944;11.776;2022-11-23T07:43:10;93616.53;;;13.64;20.84
21826;BME280;11075;47.944;11.776;2022-11-23T07:45:38;93626.69;;;14.42;20.05
21826;BME280;11075;47.944;11.776;2022-11-23T07:48:07;93643.91;;;16.80;18.24
21826;BME280;11075;47.944;11.776;2022-11-23T07:50:37;93675.44;;;19.61;16.01
21826;BME280;11075;47.944;11.776;2022-11-23T07:53:05;93681.16;;;18.53;16.66
21826;BME280;11075;47.944;11.776;2022-11-23T07:55:33;93686.38;;;18.44;16.81
21826;BME280;11075;47.944;11.776;2022-11-23T07:58:00;93699.94;;;19.64;16.12
21826;BME280;11075;47.944;11.776;2022-11-23T08:00:27;93704.00;;;20.52;15.92
21826;BME280;11075;47.944;11.776;2022-11-23T08:02:56;93697.56;;;19.47;16.44
21826;BME280;11075;47.944;11.776;2022-11-23T08:05:44;93704.28;;;19.42;16.66
21826;BME280;11075;47.944;11.776;2022-11-23T08:08:11;93699.84;;;20.27;15.93
21826;BME280;11075;47.944;11.776;2022-11-23T08:10:38;93706.31;;;20.37;15.55
21826;BME280;11075;47.944;11.776;2022-11-23T08:13:13;93698.66;;;20.28;16.62
21826;BME280;11075;47.944;11.776;2022-11-23T08:15:40;93701.25;;;20.36;16.08
21826;BME280;11075;47.944;11.776;2022-11-23T08:18:08;93681.38;;;18.39;17.55
21826;BME280;11075;47.944;11.776;2022-11-23T08:20:36;93690.66;;;19.82;16.44
21826;BME280;11075;47.944;11.776;2022-11-23T08:23:02;93701.72;;;20.50;16.01
21826;BME280;11075;47.944;11.776;2022-11-23T08:25:29;93703.59;;;19.97;16.42
21826;BME280;11075;47.944;11.776;2022-11-23T08:27:58;93699.25;;;21.66;16.16
21826;BME280;11075;47.944;11.776;2022-11-23T08:30:26;93692.66;;;18.41;17.87
21826;BME280;11075;47.944;11.776;2022-11-23T08:32:54;93659.59;;;14.30;21.14
21826;BME280;11075;47.944;11.776;2022-11-23T08:35:21;93661.03;;;17.56;18.40
21826;BME280;11075;47.944;11.776;2022-11-23T08:37:48;93672.97;;;21.23;17.06
21826;BME280;11075;47.944;11.776;2022-11-23T08:40:15;93659.47;;;18.69;18.86
21826;BME280;11075;47.944;11.776;2022-11-23T08:42:51;93685.59;;;19.17;17.51
21826;BME280;11075;47.944;11.776;2022-11-23T08:45:17;93635.59;;;15.94;20.39
21826;BME280;11075;47.944;11.776;2022-11-23T08:47:44;93664.72;;;19.07;18.12
21826;BME280;11075;47.944;11.776;2022-11-23T08:50:12;93686.47;;;20.33;16.71
21826;BME280;11075;47.944;11.776;2022-11-23T08:52:39;93667.25;;;19.61;17.99
21826;BME280;11075;47.944;11.776;2022-11-23T08:55:06;93690.50;;;21.42;16.37
21826;BME280;11075;47.944;11.776;2022-11-23T08:57:33;93686.91;;;20.48;16.61
21826;BME280;11075;47.944;11.776;2022-11-23T09:00:01;93629.06;;;15.81;21.10
21826;BME280;11075;47.944;11.776;2022-11-23T09:02:28;93627.44;;;14.89;21.43
21826;BME280;11075;47.944;11.776;2022-11-23T09:04:54;93606.53;;;14.89;21.82
21826;BME280;11075;47.944;11.776;2022-11-23T09:07:21;93597.91;;;15.19;21.64
21826;BME280;11075;47.944;11.776;2022-11-23T09:09:48;93612.56;;;13.44;22.54
21826;BME280;11075;47.944;11.776;2022-11-23T09:12:15;93599.41;;;16.11;21.50
21826;BME280;11075;47.944;11.776;2022-11-23T09:14:41;93589.81;;;13.59;23.39
21826;BME280;11075;47.944;11.776;2022-11-23T09:17:09;93612.25;;;16.00;21.01
21826;BME280;11075;47.944;11.776;2022-11-23T09:19:36;93611.69;;;13.15;22.31
21826;BME280;11075;47.944;11.776;2022-11-23T09:22:03;93600.38;;;15.80;21.39
21826;BME280;11075;47.944;11.776;2022-11-23T09:24:31;93594.97;;;14.36;22.50
21826;BME280;11075;47.944;11.776;2022-11-23T09:26:58;93569.34;;;13.62;23.65
21826;BME280;11075;47.944;11.776;2022-11-23T09:29:26;93600.34;;;14.07;22.07
21826;BME280;11075;47.944;11.776;2022-11-23T09:31:54;93589.16;;;14.44;22.03
21826;BME280;11075;47.944;11.776;2022-11-23T09:34:21;93588.22;;;13.48;22.61
21826;BME280;11075;47.944;11.776;2022-11-23T09:36:48;93571.56;;;13.28;23.77
21826;BME280;11075;47.944;11.776;2022-11-23T09:39:15;93575.47;;;13.45;23.29
21826;BME280;11075;47.944;11.776;2022-11-23T09:52:38;93588.72;;;14.74;21.98
21826;BME280;11075;47.944;11.776;2022-11-23T09:55:15;93558.09;;;12.59;24.18
21826;BME280;11075;47.944;11.776;2022-11-23T09:57:45;93549.38;;;11.81;24.70
21826;BME280;11075;47.944;11.776;2022-11-23T10:00:20;93565.09;;;14.85;22.08
21826;BME280;11075;47.944;11.776;2022-11-23T10:02:47;93584.47;;;14.66;21.69
21826;BME280;11075;47.944;11.776;2022-11-23T10:05:17;93556.44;;;13.13;23.40
21826;BME280;11075;47.944;11.776;2022-11-23T10:21:47;93565.66;;;15.43;21.24
21826;BME280;11075;47.944;11.776;2022-11-23T10:24:20;93550.84;;;14.32;22.84
21826;BME280;11075;47.944;11.776;2022-11-23T10:26:50;93617.00;;;21.24;16.38
21826;BME280;11075;47.944;11.776;2022-11-23T10:29:33;93660.69;;;22.40;15.10
21826;BME280;11075;47.944;11.776;2022-11-23T10:32:01;93685.00;;;23.83;13.91
21826;BME280;11075;47.944;11.776;2022-11-23T10:37:22;93642.59;;;22.30;15.83
21826;BME280;11075;47.944;11.776;2022-11-23T10:39:49;93663.44;;;22.40;15.56
21826;BME280;11075;47.944;11.776;2022-11-23T10:42:31;93665.59;;;22.07;15.48
21826;BME280;11075;47.944;11.776;2022-11-23T10:44:59;93650.94;;;20.13;16.50
21826;BME280;11075;47.944;11.776;2022-11-23T10:47:34;93671.09;;;20.03;15.73
21826;BME280;11075;47.944;11.776;2022-11-23T10:50:01;93669.53;;;18.49;16.29
21826;BME280;11075;47.944;11.776;2022-11-23T10:52:30;93652.34;;;21.35;15.27
21826;BME280;11075;47.944;11.776;2022-11-23T10:55:01;93618.88;;;17.98;18.26
21826;BME280;11075;47.944;11.776;2022-11-23T11:05:35;93649.38;;;20.32;15.37
21826;BME280;11075;47.944;11.776;2022-11-23T11:08:27;93630.47;;;18.56;17.09
21826;BME280;11075;47.944;11.776;2022-11-23T11:11:06;93598.09;;;16.30;19.86
21826;BME280;11075;47.944;11.776;2022-11-23T11:16:05;93601.56;;;15.75;18.80
21826;BME280;11075;47.944;11.776;2022-11-23T11:18:35;93613.47;;;18.95;17.13
21826;BME280;11075;47.944;11.776;2022-11-23T11:21:29;93599.16;;;14.79;19.69
21826;BME280;11075;47.944;11.776;2022-11-23T11:23:54;93589.41;;;17.28;18.63
21826;BME280;11075;47.944;11.776;2022-11-23T11:26:26;93599.22;;;14.47;19.42
21826;BME280;11075;47.944;11.776;2022-11-23T11:29:05;93589.16;;;14.41;19.59
21826;BME280;11075;47.944;11.776;2022-11-23T11:34:19;93598.28;;;17.66;18.00
21826;BME280;11075;47.944;11.776;2022-11-23T11:36:53;93582.63;;;11.18;21.57
21826;BME280;11075;47.944;11.776;2022-11-23T11:39:34;93590.63;;;16.41;18.74
21826;BME280;11075;47.944;11.776;2022-11-23T11:42:10;93591.53;;;19.22;17.06
21826;BME280;11075;47.944;11.776;2022-11-23T11:44:40;93588.22;;;15.99;19.32
21826;BME280;11075;47.944;11.776;2022-11-23T11:47:23;93568.47;;;16.46;19.27
21826;BME280;11075;47.944;11.776;2022-11-23T11:49:55;93570.81;;;15.89;19.78
21826;BME280;11075;47.944;11.776;2022-11-23T11:52:31;93571.38;;;17.41;18.79
21826;BME280;11075;47.944;11.776;2022-11-23T11:55:14;93568.84;;;16.90;19.15
21826;BME280;11075;47.944;11.776;2022-11-23T11:57:47;93565.53;;;14.02;20.20
21826;BME280;11075;47.944;11.776;2022-11-23T12:00:19;93568.03;;;16.93;19.05
21826;BME280;11075;47.944;11.776;2022-11-23T12:03:09;93563.16;;;18.02;18.10
21826;BME280;11075;47.944;11.776;2022-11-23T12:05:50;93569.34;;;14.79;20.18
21826;BME280;11075;47.944;11.776;2022-11-23T12:10:54;93535.81;;;16.05;20.09
21826;BME280;11075;47.944;11.776;2022-11-23T12:13:24;93559.53;;;17.55;17.80
21826;BME280;11075;47.944;11.776;2022-11-23T12:27:39;93571.75;;;19.74;16.19
21826;BME280;11075;47.944;11.776;2022-11-23T12:33:15;93553.97;;;16.98;18.18
21826;BME280;11075;47.944;11.776;2022-11-23T12:36:12;93543.28;;;15.21;19.76
21826;BME280;11075;47.944;11.776;2022-11-23T12:38:54;93552.31;;;14.79;18.63
21826;BME280;11075;47.944;11.776;2022-11-23T12:50:03;93545.06;;;16.56;18.29
21826;BME280;11075;47.944;11.776;2022-11-23T12:53:15;93544.28;;;16.14;17.91
21826;BME280;11075;47.944;11.776;2022-11-23T12:58:32;93532.88;;;16.30;18.66
21826;BME280;11075;47.944;11.776;2022-11-23T13:10:00;93520.50;;;13.12;21.07
21826;BME280;11075;47.944;11.776;2022-11-23T13:15:52;93514.25;;;15.80;19.23
21826;BME280;11075;47.944;11.776;2022-11-23T13:23:39;93538.66;;;15.14;19.59
21826;BME280;11075;47.944;11.776;2022-11-23T13:26:19;93532.50;;;15.76;19.57
21826;BME280;11075;47.944;11.776;2022-11-23T13:28:48;93492.50;;;12.03;23.19
21826;BME280;11075;47.944;11.776;2022-11-23T13:33:45;93499.69;;;13.34;21.94
21826;BME280;11075;47.944;11.776;2022-11-23T13:36:33;93468.09;;;11.01;24.70
21826;BME280;11075;47.944;11.776;2022-11-23T13:42:25;93482.31;;;11.79;23.00
21826;BME280;11075;47.944;11.776;2022-11-23T13:50:37;93484.41;;;12.69;22.55
21826;BME280;11075;47.944;11.776;2022-11-23T13:55:57;93475.25;;;11.23;23.82
21826;BME280;11075;47.944;11.776;2022-11-23T14:00:56;93475.59;;;12.90;22.43
21826;BME280;11075;47.944;11.776;2022-11-23T14:06:40;93461.31;;;9.68;24.92
21826;BME280;11075;47.944;11.776;2022-11-23T14:09:33;93462.31;;;12.46;22.66
21826;BME280;11075;47.944;11.776;2022-11-23T14:12:13;93455.31;;;12.34;22.65
21826;BME280;11075;47.944;11.776;2022-11-23T14:15:11;93464.84;;;11.66;23.26
21826;BME280;11075;47.944;11.776;2022-11-23T14:17:43;93460.38;;;12.46;22.59
21826;BME280;11075;47.944;11.776;2022-11-23T15:13:53;93475.03;;;12.42;23.15
21826;BME280;11075;47.944;11.776;2022-11-23T15:16:23;93468.38;;;12.28;23.32
21826;BME280;11075;47.944;11.776;2022-11-23T15:18:50;93461.34;;;12.13;23.07
21826;BME280;11075;47.944;11.776;2022-11-23T15:21:22;93455.88;;;11.55;23.83
21826;BME280;11075;47.944;11.776;2022-11-23T15:23:55;93451.06;;;10.60;24.99
21826;BME280;11075;47.944;11.776;2022-11-23T15:26:30;93466.69;;;11.14;23.49
21826;BME280;11075;47.944;11.776;2022-11-23T15:29:32;93468.06;;;11.38;23.09
21826;BME280;11075;47.944;11.776;2022-11-23T15:32:02;93458.63;;;10.21;24.88
21826;BME280;11075;47.944;11.776;2022-11-23T15:34:50;93461.00;;;9.99;24.46
21826;BME280;11075;47.944;11.776;2022-11-23T15:37:19;93461.47;;;10.05;24.98
21826;BME280;11075;47.944;11.776;2022-11-23T15:39:51;93479.66;;;11.86;22.64
21826;BME280;11075;47.944;11.776;2022-11-23T15:42:21;93473.97;;;10.46;23.49
21826;BME280;11075;47.944;11.776;2022-11-23T15:47:59;93456.69;;;10.21;24.63
21826;BME280;11075;47.944;11.776;2022-11-23T15:50:26;93474.16;;;10.94;23.08
21826;BME280;11075;47.944;11.776;2022-11-23T15:53:00;93483.84;;;11.80;22.28
21826;BME280;11075;47.944;11.776;2022-11-23T15:55:28;93487.13;;;11.19;22.51
21826;BME280;11075;47.944;11.776;2022-11-23T15:57:56;93469.13;;;10.03;24.34
21826;BME280;11075;47.944;11.776;2022-11-23T16:00:24;93472.03;;;10.77;23.00
21826;BME280;11075;47.944;11.776;2022-11-23T16:02:51;93479.69;;;10.41;22.98
21826;BME280;11075;47.944;11.776;2022-11-23T16:05:21;93474.47;;;10.89;22.94
21826;BME280;11075;47.944;11.776;2022-11-23T16:07:56;93469.22;;;9.57;24.78
21826;BME280;11075;47.944;11.776;2022-11-23T16:10:28;93469.44;;;9.26;24.91